Alliance, Ohio
Current Conditions -  °F | °C
As of 8:51 PM on Friday 24 Oct 2014 (Local Time) from KCAK Reporting Station
Overcast Overcast  
Wind Chill: 55°   Ceiling: 4000
Heat Index: 55°   Visibility: 10mi
Dew Point: 42°   Wind: 3mph
Humidity: 62%   Direction: 280°W
Pressure: 30.01"   Gusts: NA
Location:  40.92°N, 81.1°W
Report Text: KCAK 250051Z 28003KT 10SM OVC040 13/06 A3001 RMK AO2 SLP167 T01280056
Loading
Personal Weather Stations






























Interactive Weather Map
Tropical Storm Tracking
New forecast layout! Learn more

10-Day Weather Forecast

Advertisements
Track Severe Weather on mobile